createdAt,value
2022-07-31T00:01:21.944Z,98962.69
2022-07-31T00:03:48.616Z,98960.47
2022-07-31T00:06:15.132Z,98960.13
2022-07-31T00:08:41.586Z,98957.66
2022-07-31T00:11:07.955Z,98963.50
2022-07-31T00:13:56.659Z,98964.47
2022-07-31T00:16:22.348Z,98964.81
2022-07-31T00:18:50.811Z,98967.94
2022-07-31T00:21:17.255Z,98966.88
2022-07-31T00:23:43.747Z,98968.13
2022-07-31T00:26:10.198Z,98962.63
2022-07-31T00:28:37.285Z,98960.97
2022-07-31T00:31:04.056Z,98962.16
2022-07-31T00:33:30.462Z,98963.91
2022-07-31T00:35:56.911Z,98964.88
2022-07-31T00:38:27.157Z,98967.81
2022-07-31T00:40:54.221Z,98970.88
2022-07-31T00:43:20.875Z,98962.19
2022-07-31T00:45:49.304Z,98963.94
2022-07-31T00:48:25.520Z,98963.94
2022-07-31T00:50:52.092Z,98966.44
2022-07-31T00:53:18.577Z,98964.31
2022-07-31T00:55:51.215Z,98959.97
2022-07-31T00:58:19.166Z,98959.47
2022-07-31T01:00:46.020Z,98960.09
2022-07-31T01:03:12.826Z,98964.53
2022-07-31T01:05:40.472Z,98967.34
2022-07-31T01:08:07.413Z,98960.25
2022-07-31T01:11:15.800Z,98953.69
2022-07-31T01:13:51.112Z,98969.97
2022-07-31T01:16:19.186Z,98965.09
2022-07-31T01:18:48.941Z,98963.81
2022-07-31T01:21:27.308Z,98963.91
2022-07-31T01:24:28.579Z,98964.38
2022-07-31T01:27:01.548Z,98961.13
2022-07-31T01:29:31.693Z,98959.22
2022-07-31T01:32:27.532Z,98967.91
2022-07-31T01:35:01.487Z,98964.28
2022-07-31T01:37:31.185Z,98963.31
2022-07-31T01:40:03.523Z,98965.75
2022-07-31T01:42:31.770Z,98967.22
2022-07-31T01:45:00.885Z,98962.28
2022-07-31T01:47:29.574Z,98956.28
2022-07-31T01:49:57.910Z,98964.75
2022-07-31T01:52:27.041Z,98958.19
2022-07-31T01:54:55.564Z,98963.88
2022-07-31T01:57:24.649Z,98957.38
2022-07-31T01:59:55.726Z,98958.25
2022-07-31T02:02:27.176Z,98958.84
2022-07-31T02:04:54.599Z,98961.50
2022-07-31T02:07:22.455Z,98962.41
2022-07-31T02:09:52.308Z,98962.03
2022-07-31T02:12:33.116Z,98962.47
2022-07-31T02:15:02.764Z,98957.31
2022-07-31T02:17:29.335Z,98966.53
2022-07-31T02:20:00.274Z,98964.66
2022-07-31T02:22:27.596Z,98968.00
2022-07-31T02:24:54.266Z,98968.31
2022-07-31T02:27:57.543Z,98973.38
2022-07-31T02:30:13.329Z,98977.28
2022-07-31T02:32:44.815Z,98967.72
2022-07-31T02:35:13.137Z,98970.25
2022-07-31T02:37:40.681Z,98971.13
2022-07-31T02:40:09.402Z,98962.31
2022-07-31T02:42:36.541Z,98968.31
2022-07-31T02:45:03.661Z,98966.66
2022-07-31T02:47:31.751Z,98962.94
2022-07-31T02:49:58.471Z,98962.09
2022-07-31T02:52:25.675Z,98965.75
2022-07-31T02:54:53.126Z,98958.13
2022-07-31T02:57:19.635Z,98969.13
2022-07-31T02:59:46.242Z,98964.09
2022-07-31T03:02:12.627Z,98962.75
2022-07-31T03:04:39.326Z,98975.06
2022-07-31T03:07:05.924Z,98973.63
2022-07-31T03:09:32.325Z,98964.38
2022-07-31T03:12:01.826Z,98964.50
2022-07-31T03:14:34.029Z,98959.38
2022-07-31T03:17:01.438Z,98968.88
2022-07-31T03:19:28.882Z,98974.38
2022-07-31T03:21:55.854Z,98967.56
2022-07-31T03:24:22.630Z,98975.72
2022-07-31T03:26:49.655Z,98967.28
2022-07-31T03:29:42.673Z,98969.53
2022-07-31T03:32:04.776Z,98974.69
2022-07-31T03:34:31.894Z,98962.88
2022-07-31T03:37:00.873Z,98963.50
2022-07-31T03:39:27.589Z,98977.97
2022-07-31T03:41:56.239Z,98972.00
2022-07-31T03:44:23.513Z,98965.13
2022-07-31T03:46:50.047Z,98967.66
2022-07-31T03:49:16.772Z,98964.13
2022-07-31T03:51:43.764Z,98963.31
2022-07-31T03:54:10.275Z,98974.69
2022-07-31T03:56:38.006Z,98984.41
2022-07-31T03:59:04.457Z,98974.69
2022-07-31T04:01:57.838Z,98979.09
2022-07-31T04:04:18.468Z,98982.25
2022-07-31T04:06:45.045Z,98976.47
2022-07-31T04:09:15.609Z,98982.31
2022-07-31T04:11:45.699Z,98987.94
2022-07-31T04:14:12.250Z,98983.19
2022-07-31T04:16:38.606Z,98984.00
2022-07-31T04:19:06.183Z,98979.06
2022-07-31T04:21:32.577Z,98983.19
2022-07-31T04:23:58.963Z,98988.13
2022-07-31T04:26:26.451Z,98983.44
2022-07-31T04:28:53.316Z,98990.63
2022-07-31T04:31:19.974Z,98989.50
2022-07-31T04:33:49.599Z,98985.00
2022-07-31T04:36:29.523Z,98983.63
2022-07-31T04:38:57.747Z,98981.72
2022-07-31T04:41:24.467Z,98987.53
2022-07-31T04:43:52.301Z,98995.34
2022-07-31T04:46:18.791Z,98988.13
2022-07-31T04:48:45.477Z,98992.13
2022-07-31T04:51:23.337Z,99003.31
2022-07-31T04:53:51.322Z,98998.00
2022-07-31T04:56:19.028Z,98999.91
2022-07-31T04:58:46.497Z,98999.97
2022-07-31T05:01:12.923Z,98998.94
2022-07-31T05:03:43.182Z,98997.94
2022-07-31T05:06:11.190Z,98986.13
2022-07-31T05:08:38.878Z,98988.25
2022-07-31T05:11:06.575Z,99001.97
2022-07-31T05:13:33.063Z,98979.66
2022-07-31T05:15:59.420Z,98987.91
2022-07-31T05:18:26.054Z,98981.72
2022-07-31T05:20:52.406Z,98974.13
2022-07-31T05:23:18.950Z,98982.78
2022-07-31T05:25:45.601Z,98983.72
2022-07-31T05:28:12.032Z,98994.94
2022-07-31T05:30:39.250Z,98986.19
2022-07-31T05:33:05.852Z,98987.72
2022-07-31T05:35:32.185Z,98980.09
2022-07-31T05:37:58.533Z,98979.00
2022-07-31T05:40:25.017Z,98975.66
2022-07-31T05:42:51.407Z,98974.88
2022-07-31T05:45:18.296Z,98977.38
2022-07-31T05:47:44.974Z,98975.50
2022-07-31T05:50:11.356Z,98979.28
2022-07-31T05:52:38.217Z,98984.50
2022-07-31T05:55:05.497Z,98974.47
2022-07-31T05:57:33.980Z,98984.69
2022-07-31T06:00:03.765Z,98982.50
2022-07-31T06:02:30.692Z,98984.56
2022-07-31T06:04:57.148Z,98991.84
2022-07-31T06:07:25.843Z,98985.53
2022-07-31T06:09:52.328Z,98983.44
2022-07-31T06:12:19.617Z,98986.25
2022-07-31T06:14:47.050Z,98992.09
2022-07-31T06:17:13.680Z,98998.66
2022-07-31T06:19:40.167Z,98992.69
2022-07-31T06:22:06.858Z,99005.16
2022-07-31T06:24:33.743Z,98991.38
2022-07-31T06:27:02.134Z,98996.94
2022-07-31T06:29:40.909Z,99001.09
2022-07-31T06:32:09.376Z,99003.16
2022-07-31T06:34:36.007Z,99008.91
2022-07-31T06:37:02.390Z,99009.50
2022-07-31T06:39:55.726Z,99006.28
2022-07-31T06:42:19.673Z,99001.75
2022-07-31T06:44:46.602Z,99005.47
2022-07-31T06:47:15.727Z,99005.97
2022-07-31T06:49:43.018Z,99004.97
2022-07-31T06:52:09.429Z,99015.63
2022-07-31T06:54:36.459Z,99017.66
2022-07-31T06:57:04.121Z,99011.31
2022-07-31T06:59:39.701Z,99016.31
2022-07-31T07:02:07.964Z,99009.00
2022-07-31T07:05:05.301Z,99006.19
2022-07-31T07:07:21.925Z,99003.09
2022-07-31T07:09:48.510Z,99003.97
2022-07-31T07:12:16.909Z,98993.50
2022-07-31T07:14:43.984Z,98992.31
2022-07-31T07:17:10.624Z,98992.53
2022-07-31T07:19:40.091Z,98990.00
2022-07-31T07:22:06.858Z,98982.44
2022-07-31T07:24:33.452Z,98983.84
2022-07-31T07:26:59.964Z,98977.97
2022-07-31T07:29:26.518Z,98983.25
2022-07-31T07:31:52.894Z,98988.47
2022-07-31T07:34:19.545Z,98979.53
2022-07-31T07:36:45.933Z,98980.63
2022-07-31T07:39:13.236Z,98986.41
2022-07-31T07:41:39.736Z,98980.06
2022-07-31T07:44:06.820Z,98983.75
2022-07-31T07:46:33.556Z,98982.53
2022-07-31T07:49:00.137Z,98976.63
2022-07-31T07:51:26.875Z,98980.00
2022-07-31T07:53:53.329Z,98979.84
2022-07-31T07:56:20.039Z,98982.78
2022-07-31T07:58:46.807Z,98978.00
2022-07-31T08:01:13.763Z,98985.91
2022-07-31T08:03:48.578Z,98977.59
2022-07-31T08:06:18.771Z,98976.53
2022-07-31T08:08:45.271Z,98982.13
2022-07-31T08:11:17.242Z,98975.28
2022-07-31T08:13:50.237Z,98974.53
2022-07-31T08:16:17.834Z,98978.84
2022-07-31T08:18:44.368Z,98981.25
2022-07-31T08:21:10.957Z,98979.25
2022-07-31T08:23:37.406Z,98976.41
2022-07-31T08:26:04.610Z,98981.59
2022-07-31T08:28:33.887Z,98978.75
2022-07-31T08:31:05.783Z,98979.41
2022-07-31T08:33:32.247Z,98978.38
2022-07-31T08:35:58.939Z,98981.16
2022-07-31T08:38:25.618Z,98975.44
2022-07-31T08:40:52.405Z,98986.78
2022-07-31T08:44:02.477Z,98973.84
2022-07-31T08:46:06.604Z,98976.81
2022-07-31T08:48:35.853Z,98975.03
2022-07-31T08:51:04.046Z,98975.59
2022-07-31T08:53:31.186Z,98977.13
2022-07-31T08:55:58.084Z,98970.78
2022-07-31T08:58:24.950Z,98976.31
2022-07-31T09:00:51.847Z,98981.00
2022-07-31T09:03:18.706Z,98974.34
2022-07-31T09:05:45.095Z,98981.16
2022-07-31T09:08:14.533Z,98977.56
2022-07-31T09:10:47.792Z,98966.63
2022-07-31T09:13:18.639Z,98977.47
2022-07-31T09:15:45.277Z,98974.25
2022-07-31T09:18:17.062Z,98972.06
2022-07-31T09:20:56.654Z,98969.41
2022-07-31T09:23:24.376Z,98963.41
2022-07-31T09:25:52.414Z,98958.78
2022-07-31T09:28:23.384Z,98956.41
2022-07-31T09:30:56.554Z,98965.66
2022-07-31T09:33:23.604Z,98961.28
2022-07-31T09:35:51.677Z,98963.13
2022-07-31T09:38:18.718Z,98971.53
2022-07-31T09:40:57.568Z,98957.97
2022-07-31T09:43:24.565Z,98957.38
2022-07-31T09:46:02.051Z,98959.94
2022-07-31T09:48:29.077Z,98951.59
2022-07-31T09:51:06.903Z,98955.38
2022-07-31T09:53:44.557Z,98961.88
2022-07-31T09:56:12.030Z,98957.50
2022-07-31T09:58:39.240Z,98962.38
2022-07-31T10:01:06.352Z,98950.06
2022-07-31T10:03:34.153Z,98965.63
2022-07-31T10:06:01.165Z,98956.34
2022-07-31T10:08:28.924Z,98957.63
2022-07-31T10:11:06.063Z,98948.84
2022-07-31T10:13:53.735Z,98936.59
2022-07-31T10:16:20.185Z,98933.63
2022-07-31T10:18:53.141Z,98929.75
2022-07-31T10:21:27.728Z,98933.78
2022-07-31T10:23:56.645Z,98929.28
2022-07-31T10:26:39.180Z,98923.13
2022-07-31T10:29:09.995Z,98927.53
2022-07-31T10:31:37.090Z,98920.31
2022-07-31T10:34:03.832Z,98919.50
2022-07-31T10:36:37.062Z,98914.53
2022-07-31T10:39:24.843Z,98910.38
2022-07-31T10:42:06.011Z,98907.94
2022-07-31T10:44:41.306Z,98901.97
2022-07-31T10:47:17.538Z,98907.38
2022-07-31T10:49:49.246Z,98904.19
2022-07-31T10:52:30.738Z,98905.22
2022-07-31T10:55:00.572Z,98902.69
2022-07-31T10:57:29.721Z,98905.72
2022-07-31T10:59:56.563Z,98898.38
2022-07-31T11:02:29.738Z,98893.16
2022-07-31T11:05:10.576Z,98894.19
2022-07-31T11:07:37.556Z,98884.03
2022-07-31T11:10:18.967Z,98884.34
2022-07-31T11:12:45.909Z,98880.72
2022-07-31T11:15:24.535Z,98879.97
2022-07-31T11:18:23.181Z,98880.72
2022-07-31T11:20:42.939Z,98870.09
2022-07-31T11:23:09.393Z,98872.16
2022-07-31T11:25:36.936Z,98880.72
2022-07-31T11:28:15.466Z,98869.53
2022-07-31T11:30:52.774Z,98868.19
2022-07-31T11:33:43.165Z,98869.25
2022-07-31T11:36:16.437Z,98868.97
2022-07-31T11:38:46.826Z,98865.19
2022-07-31T11:41:14.289Z,98866.03
2022-07-31T11:43:47.094Z,98863.94
2022-07-31T11:46:18.996Z,98853.44
2022-07-31T11:48:45.825Z,98855.84
2022-07-31T11:51:17.280Z,98851.47
2022-07-31T11:53:43.749Z,98844.97
2022-07-31T11:56:12.232Z,98846.41
2022-07-31T11:58:38.859Z,98846.97
2022-07-31T12:01:05.563Z,98843.66
2022-07-31T12:03:38.881Z,98839.81
2022-07-31T12:06:10.730Z,98830.88
2022-07-31T12:08:37.697Z,98823.91
2022-07-31T12:11:07.541Z,98822.34
2022-07-31T12:13:34.274Z,98826.34
2022-07-31T12:16:02.930Z,98823.44
2022-07-31T12:18:31.050Z,98827.44
2022-07-31T12:21:02.897Z,98830.72
2022-07-31T12:23:43.714Z,98820.03
2022-07-31T12:26:27.535Z,98811.97
2022-07-31T12:29:00.687Z,98811.97
2022-07-31T12:31:28.597Z,98803.34
2022-07-31T12:33:55.161Z,98791.53
2022-07-31T12:36:21.664Z,98799.06
2022-07-31T12:38:59.794Z,98798.69
2022-07-31T12:41:27.548Z,98802.81
2022-07-31T12:43:55.196Z,98796.81
2022-07-31T12:46:37.943Z,98797.44
2022-07-31T12:49:05.704Z,98803.63
2022-07-31T12:51:44.667Z,98800.50
2022-07-31T12:54:14.683Z,98795.75
2022-07-31T12:56:41.933Z,98791.66
2022-07-31T12:59:09.191Z,98793.25
2022-07-31T13:01:37.829Z,98782.00
2022-07-31T13:04:04.525Z,98786.31
2022-07-31T13:06:31.073Z,98778.41
2022-07-31T13:08:58.079Z,98778.16
2022-07-31T13:11:24.845Z,98767.25
2022-07-31T13:13:51.297Z,98767.09
2022-07-31T13:16:18.695Z,98761.09
2022-07-31T13:18:45.255Z,98755.59
2022-07-31T13:21:11.637Z,98757.34
2022-07-31T13:23:38.198Z,98752.16
2022-07-31T13:26:04.683Z,98743.25
2022-07-31T13:28:31.047Z,98742.88
2022-07-31T13:30:57.806Z,98742.59
2022-07-31T13:33:24.442Z,98738.56
2022-07-31T13:35:51.154Z,98739.88
2022-07-31T13:38:17.746Z,98735.00
2022-07-31T13:40:44.079Z,98722.38
2022-07-31T13:43:10.814Z,98727.66
2022-07-31T13:45:37.857Z,98728.63
2022-07-31T13:48:09.336Z,98720.84
2022-07-31T13:50:40.877Z,98723.06
2022-07-31T13:53:08.576Z,98715.41
2022-07-31T13:55:35.019Z,98715.78
2022-07-31T13:58:01.800Z,98703.16
2022-07-31T14:00:29.626Z,98707.00
2022-07-31T14:02:58.243Z,98705.59
2022-07-31T14:05:27.575Z,98699.91
2022-07-31T14:07:55.379Z,98695.94
2022-07-31T14:10:22.867Z,98699.94
2022-07-31T14:12:52.296Z,98696.84
2022-07-31T14:15:18.780Z,98693.38
2022-07-31T14:17:45.397Z,98685.72
2022-07-31T14:20:12.637Z,98683.63
2022-07-31T14:22:39.154Z,98673.53
2022-07-31T14:25:07.024Z,98681.22
2022-07-31T14:27:33.389Z,98667.03
2022-07-31T14:30:00.024Z,98675.19
2022-07-31T14:32:26.562Z,98673.47
2022-07-31T14:34:52.982Z,98675.28
2022-07-31T14:37:19.454Z,98662.84
2022-07-31T14:39:46.072Z,98659.94
2022-07-31T14:42:12.723Z,98665.16
2022-07-31T14:44:40.341Z,98660.50
2022-07-31T14:47:07.125Z,98657.03
2022-07-31T14:50:09.729Z,98654.28
2022-07-31T14:52:20.426Z,98660.81
2022-07-31T14:54:46.989Z,98657.19
2022-07-31T14:57:19.941Z,98658.50
2022-07-31T14:59:49.795Z,98655.25
2022-07-31T15:02:22.553Z,98653.94
2022-07-31T15:04:49.687Z,98657.06
2022-07-31T15:07:35.224Z,98645.34
2022-07-31T15:10:07.786Z,98642.19
2022-07-31T15:12:34.612Z,98646.81
2022-07-31T15:15:01.176Z,98641.84
2022-07-31T15:17:27.880Z,98644.13
2022-07-31T15:19:54.327Z,98636.84
2022-07-31T15:22:20.765Z,98648.78
2022-07-31T15:24:50.053Z,98635.56
2022-07-31T15:27:20.721Z,98646.81
2022-07-31T15:30:05.423Z,98637.66
2022-07-31T15:32:37.757Z,98643.44
2022-07-31T15:35:06.007Z,98625.41
2022-07-31T15:37:37.314Z,98615.91
2022-07-31T15:40:06.834Z,98618.97
2022-07-31T15:42:34.911Z,98613.31
2022-07-31T15:45:01.581Z,98614.94
2022-07-31T15:47:28.022Z,98610.41
2022-07-31T15:49:54.734Z,98604.44
2022-07-31T15:52:22.535Z,98602.63
2022-07-31T15:54:51.967Z,98599.88
2022-07-31T15:57:20.678Z,98603.19
2022-07-31T15:59:47.186Z,98594.16
2022-07-31T16:02:14.460Z,98597.81
2022-07-31T16:04:51.661Z,98579.03
2022-07-31T16:08:28.665Z,98584.34
2022-07-31T16:10:15.838Z,98586.25
2022-07-31T16:12:44.408Z,98589.78
2022-07-31T16:15:11.411Z,98580.72
2022-07-31T16:17:38.068Z,98574.56
2022-07-31T16:20:25.554Z,98576.97
2022-07-31T16:22:56.213Z,98577.31
2022-07-31T16:25:23.283Z,98573.28
2022-07-31T16:27:50.048Z,98570.66
2022-07-31T16:30:16.547Z,98568.81
2022-07-31T16:32:46.324Z,98569.75
2022-07-31T16:35:13.208Z,98566.03
2022-07-31T16:37:52.376Z,98561.69
2022-07-31T16:40:30.538Z,98567.91
2022-07-31T16:43:46.760Z,98561.03
2022-07-31T16:45:48.950Z,98556.78
2022-07-31T16:48:16.952Z,98556.34
2022-07-31T16:50:43.427Z,98560.09
2022-07-31T16:53:09.999Z,98557.19
2022-07-31T16:56:00.836Z,98557.03
2022-07-31T16:58:28.498Z,98551.69
2022-07-31T17:00:55.107Z,98548.28
2022-07-31T17:04:01.610Z,98553.94
2022-07-31T17:06:09.657Z,98549.88
2022-07-31T17:08:36.138Z,98539.53
2022-07-31T17:11:02.500Z,98534.69
2022-07-31T17:13:28.944Z,98535.66
2022-07-31T17:15:55.295Z,98540.19
2022-07-31T17:18:21.859Z,98544.03
2022-07-31T17:20:48.310Z,98540.31
2022-07-31T17:23:15.000Z,98537.09
2022-07-31T17:25:42.304Z,98542.88
2022-07-31T17:28:13.336Z,98545.63
2022-07-31T17:30:41.703Z,98539.88
2022-07-31T17:33:08.257Z,98546.47
2022-07-31T17:35:34.750Z,98545.38
2022-07-31T17:38:03.040Z,98551.00
2022-07-31T17:40:42.907Z,98556.31
2022-07-31T17:43:10.237Z,98544.16
2022-07-31T17:45:59.628Z,98550.78
2022-07-31T17:48:24.751Z,98549.66
2022-07-31T17:50:54.085Z,98549.44
2022-07-31T17:53:21.053Z,98548.41
2022-07-31T17:55:47.588Z,98548.59
2022-07-31T17:58:14.149Z,98555.16
2022-07-31T18:00:40.707Z,98546.66
2022-07-31T18:03:07.594Z,98550.31
2022-07-31T18:05:34.274Z,98559.25
2022-07-31T18:08:00.748Z,98558.38
2022-07-31T18:10:51.808Z,98556.25
2022-07-31T18:13:14.058Z,98557.06
2022-07-31T18:15:40.792Z,98565.91
2022-07-31T18:18:08.283Z,98552.94
2022-07-31T18:20:35.150Z,98558.56
2022-07-31T18:23:01.597Z,98560.84
2022-07-31T18:25:27.998Z,98565.03
2022-07-31T18:27:55.584Z,98561.00
2022-07-31T18:30:22.075Z,98562.22
2022-07-31T18:32:48.503Z,98562.44
2022-07-31T18:35:14.988Z,98570.47
2022-07-31T18:37:41.406Z,98555.06
2022-07-31T18:40:08.610Z,98559.16
2022-07-31T18:42:35.053Z,98561.47
2022-07-31T18:45:02.812Z,98565.94
2022-07-31T18:47:29.275Z,98567.38
2022-07-31T18:50:59.297Z,98561.97
2022-07-31T18:52:42.076Z,98551.13
2022-07-31T18:55:10.011Z,98549.41
2022-07-31T18:57:36.369Z,98556.78
2022-07-31T19:00:05.402Z,98556.47
2022-07-31T19:02:33.311Z,98552.53
2022-07-31T19:04:59.781Z,98558.78
2022-07-31T19:07:26.330Z,98552.84
2022-07-31T19:09:53.149Z,98565.59
2022-07-31T19:12:19.966Z,98566.88
2022-07-31T19:14:47.724Z,98568.28
2022-07-31T19:17:18.505Z,98564.31
2022-07-31T19:19:54.449Z,98572.28
2022-07-31T19:22:22.199Z,98569.50
2022-07-31T19:24:48.769Z,98579.16
2022-07-31T19:27:15.735Z,98569.78
2022-07-31T19:29:42.365Z,98572.50
2022-07-31T19:32:09.010Z,98575.06
2022-07-31T19:34:35.376Z,98577.16
2022-07-31T19:37:02.296Z,98579.44
2022-07-31T19:39:30.312Z,98581.19
2022-07-31T19:42:10.928Z,98586.19
2022-07-31T19:44:38.797Z,98587.34
2022-07-31T19:47:05.416Z,98594.72
2022-07-31T19:49:37.828Z,98597.31
2022-07-31T19:52:06.693Z,98595.78
2022-07-31T19:54:33.254Z,98598.25
2022-07-31T19:56:59.869Z,98600.03
2022-07-31T19:59:26.243Z,98595.81
2022-07-31T20:01:52.721Z,98602.22
2022-07-31T20:04:19.252Z,98606.38
2022-07-31T20:06:46.989Z,98607.50
2022-07-31T20:09:13.608Z,98617.66
2022-07-31T20:11:40.057Z,98618.50
2022-07-31T20:14:06.518Z,98616.66
2022-07-31T20:16:33.655Z,98617.47
2022-07-31T20:19:00.080Z,98623.00
2022-07-31T20:21:26.972Z,98619.47
2022-07-31T20:24:01.373Z,98614.38
2022-07-31T20:26:28.016Z,98615.81
2022-07-31T20:28:55.783Z,98616.41
2022-07-31T20:31:22.522Z,98612.88
2022-07-31T20:33:57.761Z,98620.28
2022-07-31T20:36:28.084Z,98617.59
2022-07-31T20:38:55.304Z,98618.72
2022-07-31T20:41:21.655Z,98625.25
2022-07-31T20:43:48.291Z,98625.28
2022-07-31T20:46:14.733Z,98624.75
2022-07-31T20:48:41.096Z,98630.75
2022-07-31T20:51:07.625Z,98633.25
2022-07-31T20:53:33.994Z,98626.50
2022-07-31T20:56:00.848Z,98636.56
2022-07-31T20:58:27.388Z,98630.88
2022-07-31T21:00:54.732Z,98633.59
2022-07-31T21:03:21.933Z,98642.59
2022-07-31T21:05:48.855Z,98637.41
2022-07-31T21:08:15.729Z,98639.63
2022-07-31T21:10:42.426Z,98642.34
2022-07-31T21:13:09.168Z,98652.13
2022-07-31T21:15:43.275Z,98642.31
2022-07-31T21:18:19.569Z,98656.75
2022-07-31T21:20:51.228Z,98654.31
2022-07-31T21:23:24.479Z,98649.66
2022-07-31T21:25:54.077Z,98657.00
2022-07-31T21:28:24.989Z,98660.53
2022-07-31T21:30:52.164Z,98660.81
2022-07-31T21:33:19.886Z,98658.38
2022-07-31T21:35:47.316Z,98662.69
2022-07-31T21:38:14.630Z,98656.44
2022-07-31T21:40:41.852Z,98660.22
2022-07-31T21:43:10.499Z,98654.78
2022-07-31T21:45:52.948Z,98668.88
2022-07-31T21:48:24.416Z,98664.00
2022-07-31T21:50:50.970Z,98666.19
2022-07-31T21:53:17.424Z,98667.78
2022-07-31T21:55:45.293Z,98673.44
2022-07-31T21:58:11.762Z,98676.16
2022-07-31T22:00:40.876Z,98679.66
2022-07-31T22:03:07.259Z,98678.31
2022-07-31T22:05:34.127Z,98679.38
2022-07-31T22:08:00.628Z,98685.06
2022-07-31T22:10:32.449Z,98685.03
2022-07-31T22:12:59.251Z,98686.63
2022-07-31T22:15:25.914Z,98689.88
2022-07-31T22:18:12.864Z,98694.16
2022-07-31T22:20:40.871Z,98696.88
2022-07-31T22:23:07.483Z,98696.06
2022-07-31T22:25:34.131Z,98698.78
2022-07-31T22:28:04.278Z,98688.53
2022-07-31T22:30:33.415Z,98695.06
2022-07-31T22:33:00.889Z,98700.50
2022-07-31T22:35:29.212Z,98697.25
2022-07-31T22:37:55.767Z,98696.19
2022-07-31T22:40:23.241Z,98699.69
2022-07-31T22:42:57.349Z,98707.84
2022-07-31T22:45:24.256Z,98708.91
2022-07-31T22:47:51.990Z,98712.41
2022-07-31T22:50:19.308Z,98713.75
2022-07-31T22:52:48.158Z,98711.53
2022-07-31T22:55:17.441Z,98720.19
2022-07-31T22:57:44.080Z,98718.56
2022-07-31T23:00:13.081Z,98720.16
2022-07-31T23:02:40.729Z,98720.69
2022-07-31T23:05:09.167Z,98722.56
2022-07-31T23:07:36.392Z,98720.13
2022-07-31T23:10:05.078Z,98720.09
2022-07-31T23:12:31.760Z,98715.72
2022-07-31T23:14:58.253Z,98726.25
2022-07-31T23:17:24.898Z,98725.94
2022-07-31T23:19:54.183Z,98725.06
2022-07-31T23:22:30.887Z,98722.59
2022-07-31T23:25:02.117Z,98723.94
2022-07-31T23:27:29.500Z,98729.59
2022-07-31T23:29:57.760Z,98725.16
2022-07-31T23:32:24.947Z,98726.78
2022-07-31T23:34:52.791Z,98727.81
2022-07-31T23:37:19.394Z,98733.75
2022-07-31T23:39:46.154Z,98730.50
2022-07-31T23:42:12.613Z,98729.88
2022-07-31T23:44:40.160Z,98739.84
2022-07-31T23:47:09.271Z,98734.13
2022-07-31T23:49:35.826Z,98731.09
2022-07-31T23:52:03.347Z,98735.41
2022-07-31T23:54:30.510Z,98733.22
2022-07-31T23:56:56.953Z,98737.53
2022-07-31T23:59:23.321Z,98735.91
